sensor_id;sensor_type;location;lat;lon;timestamp;P1;durP1;ratioP1;P2;durP2;ratioP2
45136;SDS011;30894;51.740;19.498;2023-08-30T00:00:28;8.80;;;4.22;;
45136;SDS011;30894;51.740;19.498;2023-08-30T00:03:18;8.70;;;4.22;;
45136;SDS011;30894;51.740;19.498;2023-08-30T00:05:50;6.85;;;3.90;;
45136;SDS011;30894;51.740;19.498;2023-08-30T00:08:26;6.72;;;3.78;;
45136;SDS011;30894;51.740;19.498;2023-08-30T00:11:06;7.63;;;3.88;;
45136;SDS011;30894;51.740;19.498;2023-08-30T00:13:46;8.13;;;3.67;;
45136;SDS011;30894;51.740;19.498;2023-08-30T00:16:16;8.07;;;2.90;;
45136;SDS011;30894;51.740;19.498;2023-08-30T00:18:43;4.22;;;3.00;;
45136;SDS011;30894;51.740;19.498;2023-08-30T00:21:18;8.23;;;3.83;;
45136;SDS011;30894;51.740;19.498;2023-08-30T00:23:47;12.85;;;3.80;;
45136;SDS011;30894;51.740;19.498;2023-08-30T00:26:15;10.10;;;4.95;;
45136;SDS011;30894;51.740;19.498;2023-08-30T00:28:51;7.15;;;3.63;;
45136;SDS011;30894;51.740;19.498;2023-08-30T00:31:29;4.88;;;3.15;;
45136;SDS011;30894;51.740;19.498;2023-08-30T00:36:30;6.18;;;2.67;;
45136;SDS011;30894;51.740;19.498;2023-08-30T00:39:01;11.68;;;2.88;;
45136;SDS011;30894;51.740;19.498;2023-08-30T00:41:38;7.55;;;2.95;;
45136;SDS011;30894;51.740;19.498;2023-08-30T00:44:11;6.60;;;2.77;;
45136;SDS011;30894;51.740;19.498;2023-08-30T00:46:44;9.05;;;3.72;;
45136;SDS011;30894;51.740;19.498;2023-08-30T00:49:22;5.40;;;2.30;;
45136;SDS011;30894;51.740;19.498;2023-08-30T00:51:50;4.57;;;2.10;;
45136;SDS011;30894;51.740;19.498;2023-08-30T00:54:21;6.05;;;2.97;;
45136;SDS011;30894;51.740;19.498;2023-08-30T00:56:49;5.00;;;2.35;;
45136;SDS011;30894;51.740;19.498;2023-08-30T00:59:23;6.30;;;2.50;;
45136;SDS011;30894;51.740;19.498;2023-08-30T01:01:51;5.60;;;2.30;;
45136;SDS011;30894;51.740;19.498;2023-08-30T01:04:19;7.05;;;2.58;;
45136;SDS011;30894;51.740;19.498;2023-08-30T01:06:48;4.53;;;2.42;;
45136;SDS011;30894;51.740;19.498;2023-08-30T01:09:18;5.28;;;2.60;;
45136;SDS011;30894;51.740;19.498;2023-08-30T01:12:13;4.03;;;2.25;;
45136;SDS011;30894;51.740;19.498;2023-08-30T01:17:35;5.43;;;2.55;;
45136;SDS011;30894;51.740;19.498;2023-08-30T01:20:08;8.07;;;2.42;;
45136;SDS011;30894;51.740;19.498;2023-08-30T01:22:43;4.25;;;2.00;;
45136;SDS011;30894;51.740;19.498;2023-08-30T01:28:29;7.90;;;2.85;;
45136;SDS011;30894;51.740;19.498;2023-08-30T01:31:02;4.72;;;2.25;;
45136;SDS011;30894;51.740;19.498;2023-08-30T01:33:35;4.13;;;2.28;;
45136;SDS011;30894;51.740;19.498;2023-08-30T01:36:09;6.63;;;2.70;;
45136;SDS011;30894;51.740;19.498;2023-08-30T01:38:35;5.15;;;2.78;;
45136;SDS011;30894;51.740;19.498;2023-08-30T01:41:03;5.15;;;2.53;;
45136;SDS011;30894;51.740;19.498;2023-08-30T01:43:43;10.90;;;2.40;;
45136;SDS011;30894;51.740;19.498;2023-08-30T01:46:16;5.05;;;2.70;;
45136;SDS011;30894;51.740;19.498;2023-08-30T01:48:46;5.35;;;3.20;;
45136;SDS011;30894;51.740;19.498;2023-08-30T01:51:18;6.17;;;3.10;;
45136;SDS011;30894;51.740;19.498;2023-08-30T01:53:45;7.05;;;2.50;;
45136;SDS011;30894;51.740;19.498;2023-08-30T01:56:14;7.32;;;2.58;;
45136;SDS011;30894;51.740;19.498;2023-08-30T01:58:48;7.63;;;2.50;;
45136;SDS011;30894;51.740;19.498;2023-08-30T02:01:14;5.43;;;2.92;;
45136;SDS011;30894;51.740;19.498;2023-08-30T02:03:44;6.38;;;2.88;;
45136;SDS011;30894;51.740;19.498;2023-08-30T02:06:57;8.35;;;3.40;;
45136;SDS011;30894;51.740;19.498;2023-08-30T02:09:24;9.50;;;3.20;;
45136;SDS011;30894;51.740;19.498;2023-08-30T02:11:54;5.65;;;2.42;;
45136;SDS011;30894;51.740;19.498;2023-08-30T02:14:24;8.48;;;3.88;;
45136;SDS011;30894;51.740;19.498;2023-08-30T02:16:52;6.13;;;3.72;;
45136;SDS011;30894;51.740;19.498;2023-08-30T02:19:20;11.93;;;3.45;;
45136;SDS011;30894;51.740;19.498;2023-08-30T02:21:47;7.07;;;3.83;;
45136;SDS011;30894;51.740;19.498;2023-08-30T02:24:14;10.35;;;4.20;;
45136;SDS011;30894;51.740;19.498;2023-08-30T02:26:40;12.73;;;4.82;;
45136;SDS011;30894;51.740;19.498;2023-08-30T02:29:06;8.27;;;3.85;;
45136;SDS011;30894;51.740;19.498;2023-08-30T02:31:34;8.70;;;4.72;;
45136;SDS011;30894;51.740;19.498;2023-08-30T02:34:00;10.25;;;4.82;;
45136;SDS011;30894;51.740;19.498;2023-08-30T02:36:28;10.38;;;4.22;;
45136;SDS011;30894;51.740;19.498;2023-08-30T02:38:54;10.73;;;4.55;;
45136;SDS011;30894;51.740;19.498;2023-08-30T02:41:20;14.98;;;5.32;;
45136;SDS011;30894;51.740;19.498;2023-08-30T02:43:46;11.32;;;4.65;;
45136;SDS011;30894;51.740;19.498;2023-08-30T02:46:13;10.55;;;4.50;;
45136;SDS011;30894;51.740;19.498;2023-08-30T02:48:39;8.98;;;4.20;;
45136;SDS011;30894;51.740;19.498;2023-08-30T02:51:06;11.05;;;4.45;;
45136;SDS011;30894;51.740;19.498;2023-08-30T02:53:32;12.68;;;5.00;;
45136;SDS011;30894;51.740;19.498;2023-08-30T02:55:58;13.00;;;5.57;;
45136;SDS011;30894;51.740;19.498;2023-08-30T02:58:24;10.65;;;4.32;;
45136;SDS011;30894;51.740;19.498;2023-08-30T03:00:52;12.85;;;4.88;;
45136;SDS011;30894;51.740;19.498;2023-08-30T03:03:18;13.15;;;5.43;;
45136;SDS011;30894;51.740;19.498;2023-08-30T03:05:45;13.38;;;5.20;;
45136;SDS011;30894;51.740;19.498;2023-08-30T03:08:11;11.38;;;4.47;;
45136;SDS011;30894;51.740;19.498;2023-08-30T03:10:37;11.60;;;5.68;;
45136;SDS011;30894;51.740;19.498;2023-08-30T03:13:03;10.70;;;4.60;;
45136;SDS011;30894;51.740;19.498;2023-08-30T03:15:32;13.00;;;5.32;;
45136;SDS011;30894;51.740;19.498;2023-08-30T03:17:59;11.43;;;4.90;;
45136;SDS011;30894;51.740;19.498;2023-08-30T03:20:26;10.80;;;5.13;;
45136;SDS011;30894;51.740;19.498;2023-08-30T03:22:57;7.38;;;4.20;;
45136;SDS011;30894;51.740;19.498;2023-08-30T03:25:24;10.80;;;5.57;;
45136;SDS011;30894;51.740;19.498;2023-08-30T03:27:50;10.30;;;4.53;;
45136;SDS011;30894;51.740;19.498;2023-08-30T03:30:16;13.93;;;5.55;;
45136;SDS011;30894;51.740;19.498;2023-08-30T03:32:42;17.25;;;5.18;;
45136;SDS011;30894;51.740;19.498;2023-08-30T03:35:09;21.25;;;6.65;;
45136;SDS011;30894;51.740;19.498;2023-08-30T03:37:35;14.45;;;5.95;;
45136;SDS011;30894;51.740;19.498;2023-08-30T03:40:02;15.55;;;6.68;;
45136;SDS011;30894;51.740;19.498;2023-08-30T03:42:29;17.77;;;6.82;;
45136;SDS011;30894;51.740;19.498;2023-08-30T03:44:56;16.52;;;6.72;;
45136;SDS011;30894;51.740;19.498;2023-08-30T03:47:22;18.92;;;6.85;;
45136;SDS011;30894;51.740;19.498;2023-08-30T03:49:48;17.88;;;6.95;;
45136;SDS011;30894;51.740;19.498;2023-08-30T03:52:14;18.40;;;7.18;;
45136;SDS011;30894;51.740;19.498;2023-08-30T03:54:41;16.20;;;6.90;;
45136;SDS011;30894;51.740;19.498;2023-08-30T03:57:07;15.82;;;6.97;;
45136;SDS011;30894;51.740;19.498;2023-08-30T03:59:36;18.77;;;6.80;;
45136;SDS011;30894;51.740;19.498;2023-08-30T04:02:03;17.83;;;7.05;;
45136;SDS011;30894;51.740;19.498;2023-08-30T04:04:32;16.17;;;7.00;;
45136;SDS011;30894;51.740;19.498;2023-08-30T04:06:58;12.50;;;6.10;;
45136;SDS011;30894;51.740;19.498;2023-08-30T04:09:25;16.73;;;7.43;;
45136;SDS011;30894;51.740;19.498;2023-08-30T04:11:51;16.67;;;7.10;;
45136;SDS011;30894;51.740;19.498;2023-08-30T04:14:18;24.80;;;8.18;;
45136;SDS011;30894;51.740;19.498;2023-08-30T04:16:44;14.32;;;6.07;;
45136;SDS011;30894;51.740;19.498;2023-08-30T04:19:10;19.95;;;7.88;;
45136;SDS011;30894;51.740;19.498;2023-08-30T04:21:36;16.00;;;6.53;;
45136;SDS011;30894;51.740;19.498;2023-08-30T04:24:03;18.35;;;7.40;;
45136;SDS011;30894;51.740;19.498;2023-08-30T04:26:29;19.50;;;7.85;;
45136;SDS011;30894;51.740;19.498;2023-08-30T04:28:56;19.83;;;7.97;;
45136;SDS011;30894;51.740;19.498;2023-08-30T04:31:22;16.45;;;6.38;;
45136;SDS011;30894;51.740;19.498;2023-08-30T04:33:48;13.70;;;5.85;;
45136;SDS011;30894;51.740;19.498;2023-08-30T04:36:14;19.83;;;6.75;;
45136;SDS011;30894;51.740;19.498;2023-08-30T04:38:41;22.85;;;7.22;;
45136;SDS011;30894;51.740;19.498;2023-08-30T04:41:07;14.32;;;6.40;;
45136;SDS011;30894;51.740;19.498;2023-08-30T04:43:33;22.10;;;7.95;;
45136;SDS011;30894;51.740;19.498;2023-08-30T04:45:59;16.95;;;6.85;;
45136;SDS011;30894;51.740;19.498;2023-08-30T04:48:26;20.45;;;6.82;;
45136;SDS011;30894;51.740;19.498;2023-08-30T04:51:01;15.18;;;6.30;;
45136;SDS011;30894;51.740;19.498;2023-08-30T04:53:30;14.20;;;6.47;;
45136;SDS011;30894;51.740;19.498;2023-08-30T04:55:58;13.75;;;5.90;;
45136;SDS011;30894;51.740;19.498;2023-08-30T04:58:25;13.50;;;5.47;;
45136;SDS011;30894;51.740;19.498;2023-08-30T05:00:51;19.92;;;6.47;;
45136;SDS011;30894;51.740;19.498;2023-08-30T05:03:17;14.00;;;5.82;;
45136;SDS011;30894;51.740;19.498;2023-08-30T05:05:46;12.57;;;5.18;;
45136;SDS011;30894;51.740;19.498;2023-08-30T05:08:13;17.02;;;5.95;;
45136;SDS011;30894;51.740;19.498;2023-08-30T05:10:39;19.23;;;6.80;;
45136;SDS011;30894;51.740;19.498;2023-08-30T05:13:06;14.18;;;5.90;;
45136;SDS011;30894;51.740;19.498;2023-08-30T05:15:32;15.55;;;6.00;;
45136;SDS011;30894;51.740;19.498;2023-08-30T05:17:58;17.52;;;5.80;;
45136;SDS011;30894;51.740;19.498;2023-08-30T05:20:24;13.13;;;5.50;;
45136;SDS011;30894;51.740;19.498;2023-08-30T05:22:51;13.30;;;5.50;;
45136;SDS011;30894;51.740;19.498;2023-08-30T05:25:17;14.48;;;5.35;;
45136;SDS011;30894;51.740;19.498;2023-08-30T05:27:43;18.83;;;5.38;;
45136;SDS011;30894;51.740;19.498;2023-08-30T05:30:09;14.27;;;5.95;;
45136;SDS011;30894;51.740;19.498;2023-08-30T05:32:37;13.82;;;5.93;;
45136;SDS011;30894;51.740;19.498;2023-08-30T05:35:07;15.73;;;5.47;;
45136;SDS011;30894;51.740;19.498;2023-08-30T05:37:35;14.90;;;5.50;;
45136;SDS011;30894;51.740;19.498;2023-08-30T05:40:01;12.93;;;5.15;;
45136;SDS011;30894;51.740;19.498;2023-08-30T05:42:29;16.83;;;5.95;;
45136;SDS011;30894;51.740;19.498;2023-08-30T05:44:56;14.65;;;5.63;;
45136;SDS011;30894;51.740;19.498;2023-08-30T05:47:22;11.02;;;4.63;;
45136;SDS011;30894;51.740;19.498;2023-08-30T05:49:49;16.23;;;5.88;;
45136;SDS011;30894;51.740;19.498;2023-08-30T05:52:17;16.10;;;6.10;;
45136;SDS011;30894;51.740;19.498;2023-08-30T05:54:44;16.30;;;6.78;;
45136;SDS011;30894;51.740;19.498;2023-08-30T05:57:10;12.43;;;6.80;;
45136;SDS011;30894;51.740;19.498;2023-08-30T05:59:37;15.38;;;5.60;;
45136;SDS011;30894;51.740;19.498;2023-08-30T06:02:03;17.02;;;6.25;;
45136;SDS011;30894;51.740;19.498;2023-08-30T06:04:29;17.33;;;5.90;;
45136;SDS011;30894;51.740;19.498;2023-08-30T06:06:56;17.70;;;7.20;;
45136;SDS011;30894;51.740;19.498;2023-08-30T06:09:22;16.13;;;5.82;;
45136;SDS011;30894;51.740;19.498;2023-08-30T06:11:48;10.95;;;5.47;;
45136;SDS011;30894;51.740;19.498;2023-08-30T06:14:14;17.38;;;5.82;;
45136;SDS011;30894;51.740;19.498;2023-08-30T06:16:40;19.77;;;6.82;;
45136;SDS011;30894;51.740;19.498;2023-08-30T06:19:10;15.20;;;6.40;;
45136;SDS011;30894;51.740;19.498;2023-08-30T06:21:40;11.98;;;5.97;;
45136;SDS011;30894;51.740;19.498;2023-08-30T06:24:06;18.80;;;7.05;;
45136;SDS011;30894;51.740;19.498;2023-08-30T06:26:35;15.80;;;5.85;;
45136;SDS011;30894;51.740;19.498;2023-08-30T06:29:02;12.88;;;5.78;;
45136;SDS011;30894;51.740;19.498;2023-08-30T06:31:28;15.88;;;6.13;;
45136;SDS011;30894;51.740;19.498;2023-08-30T06:33:54;16.65;;;5.75;;
45136;SDS011;30894;51.740;19.498;2023-08-30T06:36:21;14.80;;;6.15;;
45136;SDS011;30894;51.740;19.498;2023-08-30T06:38:49;14.27;;;6.35;;
45136;SDS011;30894;51.740;19.498;2023-08-30T06:41:17;17.02;;;6.40;;
45136;SDS011;30894;51.740;19.498;2023-08-30T06:43:43;16.85;;;5.95;;
45136;SDS011;30894;51.740;19.498;2023-08-30T06:46:09;13.55;;;5.72;;
45136;SDS011;30894;51.740;19.498;2023-08-30T06:48:35;12.82;;;4.85;;
45136;SDS011;30894;51.740;19.498;2023-08-30T06:51:02;17.50;;;6.88;;
45136;SDS011;30894;51.740;19.498;2023-08-30T06:53:28;16.15;;;6.10;;
45136;SDS011;30894;51.740;19.498;2023-08-30T06:55:59;14.38;;;6.90;;
45136;SDS011;30894;51.740;19.498;2023-08-30T06:58:28;18.20;;;5.75;;
45136;SDS011;30894;51.740;19.498;2023-08-30T07:00:57;14.93;;;6.07;;
45136;SDS011;30894;51.740;19.498;2023-08-30T07:03:23;17.25;;;5.90;;
45136;SDS011;30894;51.740;19.498;2023-08-30T07:05:53;13.63;;;5.57;;
45136;SDS011;30894;51.740;19.498;2023-08-30T07:08:19;19.55;;;6.18;;
45136;SDS011;30894;51.740;19.498;2023-08-30T07:10:46;17.70;;;5.75;;
45136;SDS011;30894;51.740;19.498;2023-08-30T07:13:12;20.42;;;6.32;;
45136;SDS011;30894;51.740;19.498;2023-08-30T07:15:39;12.95;;;5.03;;
45136;SDS011;30894;51.740;19.498;2023-08-30T07:18:07;16.38;;;6.10;;
45136;SDS011;30894;51.740;19.498;2023-08-30T07:20:34;12.57;;;6.07;;
45136;SDS011;30894;51.740;19.498;2023-08-30T07:23:02;11.02;;;5.00;;
45136;SDS011;30894;51.740;19.498;2023-08-30T07:25:32;10.15;;;4.88;;
45136;SDS011;30894;51.740;19.498;2023-08-30T07:28:01;17.63;;;5.68;;
45136;SDS011;30894;51.740;19.498;2023-08-30T07:30:28;11.35;;;4.63;;
45136;SDS011;30894;51.740;19.498;2023-08-30T07:32:54;15.20;;;5.45;;
45136;SDS011;30894;51.740;19.498;2023-08-30T07:35:21;14.73;;;4.85;;
45136;SDS011;30894;51.740;19.498;2023-08-30T07:37:47;13.30;;;5.18;;
45136;SDS011;30894;51.740;19.498;2023-08-30T07:40:14;11.52;;;5.10;;
45136;SDS011;30894;51.740;19.498;2023-08-30T07:42:43;9.88;;;5.18;;
45136;SDS011;30894;51.740;19.498;2023-08-30T07:45:09;16.15;;;5.30;;
45136;SDS011;30894;51.740;19.498;2023-08-30T07:47:35;12.27;;;5.05;;
45136;SDS011;30894;51.740;19.498;2023-08-30T07:50:04;15.70;;;5.57;;
45136;SDS011;30894;51.740;19.498;2023-08-30T07:52:31;11.93;;;4.20;;
45136;SDS011;30894;51.740;19.498;2023-08-30T07:54:58;11.93;;;4.88;;
45136;SDS011;30894;51.740;19.498;2023-08-30T07:57:24;13.18;;;5.28;;
45136;SDS011;30894;51.740;19.498;2023-08-30T07:59:50;10.88;;;4.30;;
45136;SDS011;30894;51.740;19.498;2023-08-30T08:02:16;11.82;;;5.32;;
45136;SDS011;30894;51.740;19.498;2023-08-30T08:04:43;12.85;;;5.03;;
45136;SDS011;30894;51.740;19.498;2023-08-30T08:07:09;12.90;;;5.53;;
45136;SDS011;30894;51.740;19.498;2023-08-30T08:09:36;13.23;;;5.20;;
45136;SDS011;30894;51.740;19.498;2023-08-30T08:12:05;13.48;;;4.65;;
45136;SDS011;30894;51.740;19.498;2023-08-30T08:14:32;9.98;;;3.90;;
45136;SDS011;30894;51.740;19.498;2023-08-30T08:16:58;15.65;;;4.82;;
45136;SDS011;30894;51.740;19.498;2023-08-30T08:19:27;8.98;;;4.38;;
45136;SDS011;30894;51.740;19.498;2023-08-30T08:21:53;13.10;;;4.38;;
45136;SDS011;30894;51.740;19.498;2023-08-30T08:24:20;12.32;;;3.58;;
45136;SDS011;30894;51.740;19.498;2023-08-30T08:26:46;9.63;;;3.95;;
45136;SDS011;30894;51.740;19.498;2023-08-30T08:29:13;7.70;;;3.88;;
45136;SDS011;30894;51.740;19.498;2023-08-30T08:31:39;7.22;;;3.58;;
45136;SDS011;30894;51.740;19.498;2023-08-30T08:34:06;7.90;;;3.05;;
45136;SDS011;30894;51.740;19.498;2023-08-30T08:36:40;7.20;;;3.42;;
45136;SDS011;30894;51.740;19.498;2023-08-30T08:39:08;9.40;;;3.25;;
45136;SDS011;30894;51.740;19.498;2023-08-30T08:41:36;9.40;;;3.53;;
45136;SDS011;30894;51.740;19.498;2023-08-30T08:44:09;8.15;;;3.30;;
45136;SDS011;30894;51.740;19.498;2023-08-30T08:46:39;8.95;;;3.60;;
45136;SDS011;30894;51.740;19.498;2023-08-30T08:49:16;6.13;;;3.58;;
45136;SDS011;30894;51.740;19.498;2023-08-30T08:51:43;10.88;;;3.42;;
45136;SDS011;30894;51.740;19.498;2023-08-30T08:54:11;7.68;;;3.28;;
45136;SDS011;30894;51.740;19.498;2023-08-30T08:56:38;9.63;;;3.30;;
45136;SDS011;30894;51.740;19.498;2023-08-30T08:59:06;6.43;;;3.08;;
45136;SDS011;30894;51.740;19.498;2023-08-30T09:01:34;6.68;;;2.83;;
45136;SDS011;30894;51.740;19.498;2023-08-30T09:04:05;9.25;;;3.38;;
45136;SDS011;30894;51.740;19.498;2023-08-30T09:06:35;6.05;;;2.38;;
45136;SDS011;30894;51.740;19.498;2023-08-30T09:09:02;5.47;;;2.55;;
45136;SDS011;30894;51.740;19.498;2023-08-30T09:11:30;7.93;;;3.05;;
45136;SDS011;30894;51.740;19.498;2023-08-30T09:13:57;5.57;;;2.90;;
45136;SDS011;30894;51.740;19.498;2023-08-30T09:16:23;5.53;;;2.65;;
45136;SDS011;30894;51.740;19.498;2023-08-30T09:19:00;6.53;;;2.35;;
45136;SDS011;30894;51.740;19.498;2023-08-30T09:21:28;6.05;;;3.08;;
45136;SDS011;30894;51.740;19.498;2023-08-30T09:26:32;5.00;;;2.75;;
45136;SDS011;30894;51.740;19.498;2023-08-30T09:29:02;5.38;;;2.33;;
45136;SDS011;30894;51.740;19.498;2023-08-30T09:31:35;7.15;;;2.63;;
45136;SDS011;30894;51.740;19.498;2023-08-30T09:34:04;6.85;;;3.03;;
45136;SDS011;30894;51.740;19.498;2023-08-30T09:36:37;6.97;;;3.35;;
45136;SDS011;30894;51.740;19.498;2023-08-30T09:39:13;6.93;;;2.75;;
45136;SDS011;30894;51.740;19.498;2023-08-30T09:41:40;4.47;;;2.30;;
45136;SDS011;30894;51.740;19.498;2023-08-30T09:44:12;5.47;;;2.47;;
45136;SDS011;30894;51.740;19.498;2023-08-30T09:46:40;7.15;;;2.83;;
45136;SDS011;30894;51.740;19.498;2023-08-30T09:49:12;5.13;;;2.97;;
45136;SDS011;30894;51.740;19.498;2023-08-30T09:51:39;2.72;;;1.38;;
45136;SDS011;30894;51.740;19.498;2023-08-30T09:54:19;6.95;;;2.45;;
45136;SDS011;30894;51.740;19.498;2023-08-30T09:56:49;6.35;;;2.53;;
45136;SDS011;30894;51.740;19.498;2023-08-30T09:59:31;2.40;;;1.75;;
45136;SDS011;30894;51.740;19.498;2023-08-30T10:01:59;4.88;;;2.55;;
45136;SDS011;30894;51.740;19.498;2023-08-30T10:04:26;5.60;;;2.28;;
45136;SDS011;30894;51.740;19.498;2023-08-30T10:06:55;4.55;;;2.45;;
45136;SDS011;30894;51.740;19.498;2023-08-30T10:09:25;3.53;;;2.08;;
45136;SDS011;30894;51.740;19.498;2023-08-30T10:12:02;4.13;;;2.05;;
45136;SDS011;30894;51.740;19.498;2023-08-30T10:14:32;4.03;;;2.10;;
45136;SDS011;30894;51.740;19.498;2023-08-30T10:17:05;4.15;;;1.98;;
45136;SDS011;30894;51.740;19.498;2023-08-30T10:19:44;6.13;;;2.35;;
45136;SDS011;30894;51.740;19.498;2023-08-30T10:22:11;3.03;;;2.00;;
45136;SDS011;30894;51.740;19.498;2023-08-30T10:24:44;6.30;;;1.90;;
45136;SDS011;30894;51.740;19.498;2023-08-30T10:27:25;3.58;;;2.05;;
45136;SDS011;30894;51.740;19.498;2023-08-30T10:29:54;5.57;;;2.35;;
45136;SDS011;30894;51.740;19.498;2023-08-30T10:32:29;4.47;;;2.78;;
45136;SDS011;30894;51.740;19.498;2023-08-30T10:35:00;5.50;;;2.58;;
45136;SDS011;30894;51.740;19.498;2023-08-30T10:37:29;4.40;;;2.35;;
45136;SDS011;30894;51.740;19.498;2023-08-30T10:39:59;4.18;;;2.45;;
45136;SDS011;30894;51.740;19.498;2023-08-30T10:42:30;4.88;;;2.25;;
45136;SDS011;30894;51.740;19.498;2023-08-30T10:44:59;5.18;;;2.33;;
45136;SDS011;30894;51.740;19.498;2023-08-30T10:47:31;4.25;;;2.00;;
45136;SDS011;30894;51.740;19.498;2023-08-30T10:50:04;3.60;;;1.73;;
45136;SDS011;30894;51.740;19.498;2023-08-30T10:52:38;4.78;;;2.15;;
45136;SDS011;30894;51.740;19.498;2023-08-30T10:57:43;3.83;;;1.73;;
45136;SDS011;30894;51.740;19.498;2023-08-30T11:02:44;5.00;;;2.53;;
45136;SDS011;30894;51.740;19.498;2023-08-30T11:05:12;4.70;;;1.88;;
45136;SDS011;30894;51.740;19.498;2023-08-30T11:07:40;4.05;;;2.33;;
45136;SDS011;30894;51.740;19.498;2023-08-30T11:10:08;5.10;;;2.00;;
45136;SDS011;30894;51.740;19.498;2023-08-30T11:12:36;3.53;;;2.20;;
45136;SDS011;30894;51.740;19.498;2023-08-30T11:15:06;6.10;;;2.28;;
45136;SDS011;30894;51.740;19.498;2023-08-30T11:17:35;4.55;;;2.30;;
45136;SDS011;30894;51.740;19.498;2023-08-30T11:20:14;3.58;;;2.10;;
45136;SDS011;30894;51.740;19.498;2023-08-30T11:22:45;4.82;;;2.25;;
45136;SDS011;30894;51.740;19.498;2023-08-30T11:25:17;5.90;;;2.88;;
45136;SDS011;30894;51.740;19.498;2023-08-30T11:27:45;5.65;;;2.65;;
45136;SDS011;30894;51.740;19.498;2023-08-30T11:30:13;5.63;;;2.47;;
45136;SDS011;30894;51.740;19.498;2023-08-30T11:32:45;4.28;;;2.33;;
45136;SDS011;30894;51.740;19.498;2023-08-30T11:35:15;7.63;;;2.65;;
45136;SDS011;30894;51.740;19.498;2023-08-30T11:37:44;7.25;;;2.45;;
45136;SDS011;30894;51.740;19.498;2023-08-30T11:40:14;3.55;;;2.42;;
45136;SDS011;30894;51.740;19.498;2023-08-30T11:42:43;4.18;;;2.60;;
45136;SDS011;30894;51.740;19.498;2023-08-30T11:45:10;6.82;;;3.58;;
45136;SDS011;30894;51.740;19.498;2023-08-30T11:47:36;7.15;;;3.60;;
45136;SDS011;30894;51.740;19.498;2023-08-30T11:50:03;9.30;;;3.70;;
45136;SDS011;30894;51.740;19.498;2023-08-30T11:52:31;8.95;;;3.80;;
45136;SDS011;30894;51.740;19.498;2023-08-30T11:54:58;8.18;;;3.40;;
45136;SDS011;30894;51.740;19.498;2023-08-30T11:57:26;8.05;;;3.65;;
45136;SDS011;30894;51.740;19.498;2023-08-30T11:59:53;9.23;;;4.47;;
45136;SDS011;30894;51.740;19.498;2023-08-30T12:02:19;7.25;;;3.70;;
45136;SDS011;30894;51.740;19.498;2023-08-30T12:04:47;8.27;;;4.05;;
45136;SDS011;30894;51.740;19.498;2023-08-30T12:07:26;7.55;;;4.38;;
45136;SDS011;30894;51.740;19.498;2023-08-30T12:10:03;6.18;;;3.88;;
45136;SDS011;30894;51.740;19.498;2023-08-30T12:12:34;8.80;;;3.95;;
45136;SDS011;30894;51.740;19.498;2023-08-30T12:15:08;6.75;;;3.50;;
45136;SDS011;30894;51.740;19.498;2023-08-30T12:20:13;9.60;;;4.20;;
45136;SDS011;30894;51.740;19.498;2023-08-30T12:22:45;8.35;;;4.65;;
45136;SDS011;30894;51.740;19.498;2023-08-30T12:27:48;8.75;;;4.38;;
45136;SDS011;30894;51.740;19.498;2023-08-30T12:30:15;11.93;;;4.68;;
45136;SDS011;30894;51.740;19.498;2023-08-30T12:32:42;10.63;;;4.38;;
45136;SDS011;30894;51.740;19.498;2023-08-30T12:35:12;9.00;;;3.47;;
45136;SDS011;30894;51.740;19.498;2023-08-30T12:37:44;8.50;;;4.38;;
45136;SDS011;30894;51.740;19.498;2023-08-30T12:40:11;11.50;;;5.05;;
45136;SDS011;30894;51.740;19.498;2023-08-30T12:42:37;9.50;;;4.43;;
45136;SDS011;30894;51.740;19.498;2023-08-30T12:45:04;11.68;;;4.72;;
45136;SDS011;30894;51.740;19.498;2023-08-30T12:47:32;10.07;;;4.50;;
45136;SDS011;30894;51.740;19.498;2023-08-30T12:49:59;9.05;;;4.15;;
45136;SDS011;30894;51.740;19.498;2023-08-30T12:52:25;9.25;;;4.38;;
45136;SDS011;30894;51.740;19.498;2023-08-30T12:54:52;8.25;;;3.88;;
45136;SDS011;30894;51.740;19.498;2023-08-30T12:57:19;7.75;;;4.47;;
45136;SDS011;30894;51.740;19.498;2023-08-30T12:59:45;9.05;;;4.78;;
45136;SDS011;30894;51.740;19.498;2023-08-30T13:02:12;9.77;;;4.53;;
45136;SDS011;30894;51.740;19.498;2023-08-30T13:04:38;9.35;;;4.63;;
45136;SDS011;30894;51.740;19.498;2023-08-30T13:07:04;9.82;;;4.53;;
45136;SDS011;30894;51.740;19.498;2023-08-30T13:09:31;9.70;;;4.35;;
45136;SDS011;30894;51.740;19.498;2023-08-30T13:11:57;8.68;;;4.28;;
45136;SDS011;30894;51.740;19.498;2023-08-30T13:14:23;8.02;;;3.90;;
45136;SDS011;30894;51.740;19.498;2023-08-30T13:16:49;9.18;;;4.65;;
45136;SDS011;30894;51.740;19.498;2023-08-30T13:19:16;10.63;;;4.45;;
45136;SDS011;30894;51.740;19.498;2023-08-30T13:21:42;6.50;;;3.67;;
45136;SDS011;30894;51.740;19.498;2023-08-30T13:24:10;10.15;;;4.90;;
45136;SDS011;30894;51.740;19.498;2023-08-30T13:26:35;7.80;;;4.32;;
45136;SDS011;30894;51.740;19.498;2023-08-30T13:29:02;10.50;;;5.05;;
45136;SDS011;30894;51.740;19.498;2023-08-30T13:31:28;10.13;;;5.13;;
45136;SDS011;30894;51.740;19.498;2023-08-30T13:33:54;9.75;;;5.18;;
45136;SDS011;30894;51.740;19.498;2023-08-30T13:36:20;11.38;;;5.68;;
45136;SDS011;30894;51.740;19.498;2023-08-30T13:38:47;8.80;;;4.93;;
45136;SDS011;30894;51.740;19.498;2023-08-30T13:41:13;11.00;;;5.55;;
45136;SDS011;30894;51.740;19.498;2023-08-30T13:43:40;11.13;;;5.68;;
45136;SDS011;30894;51.740;19.498;2023-08-30T13:46:06;11.80;;;6.43;;
45136;SDS011;30894;51.740;19.498;2023-08-30T13:48:35;13.00;;;6.05;;
45136;SDS011;30894;51.740;19.498;2023-08-30T13:51:01;12.27;;;6.05;;
45136;SDS011;30894;51.740;19.498;2023-08-30T13:53:28;11.35;;;5.53;;
45136;SDS011;30894;51.740;19.498;2023-08-30T13:55:54;10.63;;;5.70;;
45136;SDS011;30894;51.740;19.498;2023-08-30T13:58:21;10.00;;;5.70;;
45136;SDS011;30894;51.740;19.498;2023-08-30T14:00:47;13.73;;;6.75;;
45136;SDS011;30894;51.740;19.498;2023-08-30T14:03:14;11.90;;;6.20;;
45136;SDS011;30894;51.740;19.498;2023-08-30T14:05:40;11.45;;;5.93;;
45136;SDS011;30894;51.740;19.498;2023-08-30T14:08:07;13.13;;;7.07;;
45136;SDS011;30894;51.740;19.498;2023-08-30T14:10:33;10.68;;;6.35;;
45136;SDS011;30894;51.740;19.498;2023-08-30T14:12:59;14.68;;;6.68;;
45136;SDS011;30894;51.740;19.498;2023-08-30T14:15:28;13.35;;;6.13;;
45136;SDS011;30894;51.740;19.498;2023-08-30T14:17:55;10.75;;;5.78;;
45136;SDS011;30894;51.740;19.498;2023-08-30T14:20:22;9.35;;;5.68;;
45136;SDS011;30894;51.740;19.498;2023-08-30T14:22:48;14.27;;;6.28;;
45136;SDS011;30894;51.740;19.498;2023-08-30T14:25:14;10.45;;;5.53;;
45136;SDS011;30894;51.740;19.498;2023-08-30T14:27:41;10.88;;;5.82;;
45136;SDS011;30894;51.740;19.498;2023-08-30T14:30:07;10.27;;;5.60;;
45136;SDS011;30894;51.740;19.498;2023-08-30T14:32:36;9.05;;;5.50;;
45136;SDS011;30894;51.740;19.498;2023-08-30T14:35:05;11.70;;;5.63;;
45136;SDS011;30894;51.740;19.498;2023-08-30T14:37:32;9.48;;;5.50;;
45136;SDS011;30894;51.740;19.498;2023-08-30T14:40:01;9.52;;;5.57;;
45136;SDS011;30894;51.740;19.498;2023-08-30T14:42:29;8.95;;;5.20;;
45136;SDS011;30894;51.740;19.498;2023-08-30T14:44:57;14.48;;;6.00;;
45136;SDS011;30894;51.740;19.498;2023-08-30T14:47:28;10.38;;;5.75;;
45136;SDS011;30894;51.740;19.498;2023-08-30T14:49:59;10.98;;;5.78;;
45136;SDS011;30894;51.740;19.498;2023-08-30T14:52:29;9.82;;;5.38;;
45136;SDS011;30894;51.740;19.498;2023-08-30T14:54:55;13.00;;;6.03;;
45136;SDS011;30894;51.740;19.498;2023-08-30T14:57:22;12.75;;;5.95;;